createdAt,value
2017-01-08T00:00:10.373Z,0.15
2017-01-08T00:00:50.967Z,0.21
2017-01-08T00:01:31.596Z,0.12
2017-01-08T00:02:12.240Z,0.21
2017-01-08T00:02:52.895Z,0.18
2017-01-08T00:03:33.566Z,0.23
2017-01-08T00:04:14.188Z,0.23
2017-01-08T00:04:54.758Z,0.22
2017-01-08T00:05:35.453Z,0.28
2017-01-08T00:06:16.097Z,0.22
2017-01-08T00:06:56.726Z,0.19
2017-01-08T00:07:37.372Z,0.28
2017-01-08T00:08:18.017Z,0.28
2017-01-08T00:08:58.675Z,0.26
2017-01-08T00:09:39.322Z,0.26
2017-01-08T00:10:19.917Z,0.26
2017-01-08T00:11:00.512Z,0.28
2017-01-08T00:11:41.076Z,0.23
2017-01-08T00:12:21.864Z,0.19
2017-01-08T00:13:02.533Z,0.21
2017-01-08T00:13:43.123Z,0.26
2017-01-08T00:14:23.704Z,0.25
2017-01-08T00:15:04.449Z,0.26
2017-01-08T00:15:45.099Z,0.23
2017-01-08T00:16:25.790Z,0.23
2017-01-08T00:17:07.428Z,0.26
2017-01-08T00:17:48.116Z,0.26
2017-01-08T00:18:28.738Z,0.26
2017-01-08T00:19:09.395Z,0.21
2017-01-08T00:19:50.046Z,0.19
2017-01-08T00:20:30.787Z,0.18
2017-01-08T00:21:11.349Z,0.25
2017-01-08T00:21:52.021Z,0.28
2017-01-08T00:22:32.632Z,0.28
2017-01-08T00:23:13.207Z,0.29
2017-01-08T00:23:53.870Z,0.22
2017-01-08T00:24:35.520Z,0.26
2017-01-08T00:25:16.070Z,0.32
2017-01-08T00:25:56.761Z,0.29
2017-01-08T00:26:37.477Z,0.36
2017-01-08T00:27:18.064Z,0.28
2017-01-08T00:27:58.694Z,0.31
2017-01-08T00:28:39.340Z,0.31
2017-01-08T00:29:20.463Z,0.32
2017-01-08T00:30:01.088Z,0.39
2017-01-08T00:30:41.765Z,0.28
2017-01-08T00:31:22.355Z,0.25
2017-01-08T00:32:02.943Z,0.36
2017-01-08T00:32:43.573Z,0.29
2017-01-08T00:33:24.210Z,0.36
2017-01-08T00:34:04.859Z,0.28
2017-01-08T00:34:45.422Z,0.31
2017-01-08T00:35:26.195Z,0.28
2017-01-08T00:36:06.877Z,0.28
2017-01-08T00:36:47.481Z,0.28
2017-01-08T00:37:28.091Z,0.28
2017-01-08T00:38:08.830Z,0.26
2017-01-08T00:38:49.495Z,0.34
2017-01-08T00:39:30.092Z,0.34
2017-01-08T00:40:10.668Z,0.34
2017-01-08T00:40:51.444Z,0.23
2017-01-08T00:41:32.188Z,0.23
2017-01-08T00:42:12.963Z,0.32
2017-01-08T00:42:53.586Z,0.29
2017-01-08T00:43:34.240Z,0.26
2017-01-08T00:44:14.882Z,0.28
2017-01-08T00:44:55.528Z,0.34
2017-01-08T00:45:36.192Z,0.28
2017-01-08T00:46:16.842Z,0.32
2017-01-08T00:46:57.514Z,0.31
2017-01-08T00:47:39.188Z,0.21
2017-01-08T00:48:19.828Z,0.34
2017-01-08T00:49:00.480Z,0.29
2017-01-08T00:49:41.210Z,0.29
2017-01-08T00:50:21.787Z,0.31
2017-01-08T00:51:02.438Z,0.23
2017-01-08T00:51:43.106Z,0.32
2017-01-08T00:52:23.967Z,0.22
2017-01-08T00:53:04.618Z,0.29
2017-01-08T00:53:45.258Z,0.25
2017-01-08T00:54:25.943Z,0.34
2017-01-08T00:55:06.597Z,0.39
2017-01-08T00:55:49.301Z,0.31
2017-01-08T00:56:29.895Z,0.23
2017-01-08T00:57:10.451Z,0.28
2017-01-08T00:57:51.126Z,0.34
2017-01-08T00:58:31.779Z,0.31
2017-01-08T00:59:13.424Z,0.39
2017-01-08T00:59:53.978Z,0.25
2017-01-08T01:00:34.659Z,0.25
2017-01-08T01:01:15.311Z,0.26
2017-01-08T01:01:55.973Z,0.23
2017-01-08T01:02:36.607Z,0.32
2017-01-08T01:03:17.270Z,0.36
2017-01-08T01:03:57.935Z,0.31
2017-01-08T01:04:38.587Z,0.34
2017-01-08T01:05:19.215Z,0.21
2017-01-08T01:05:59.800Z,0.23
2017-01-08T01:06:40.424Z,0.34
2017-01-08T01:07:20.979Z,0.32
2017-01-08T01:08:01.615Z,0.34
2017-01-08T01:08:42.249Z,0.28
2017-01-08T01:09:22.915Z,0.31
2017-01-08T01:10:03.484Z,0.29
2017-01-08T01:10:44.138Z,0.34
2017-01-08T01:11:24.776Z,0.26
2017-01-08T01:12:05.343Z,0.29
2017-01-08T01:12:45.993Z,0.25
2017-01-08T01:13:26.636Z,0.32
2017-01-08T01:14:07.190Z,0.22
2017-01-08T01:14:47.841Z,0.31
2017-01-08T01:15:28.448Z,0.36
2017-01-08T01:16:09.110Z,0.23
2017-01-08T01:16:49.748Z,0.32
2017-01-08T01:17:30.306Z,0.23
2017-01-08T01:18:10.895Z,0.34
2017-01-08T01:18:51.566Z,0.31
2017-01-08T01:19:32.205Z,0.32
2017-01-08T01:20:12.868Z,0.29
2017-01-08T01:20:53.458Z,0.34
2017-01-08T01:21:34.205Z,0.39
2017-01-08T01:22:14.794Z,0.39
2017-01-08T01:22:55.385Z,0.36
2017-01-08T01:23:36.069Z,0.36
2017-01-08T01:24:17.687Z,0.37
2017-01-08T01:24:58.264Z,0.37
2017-01-08T01:25:38.915Z,0.41
2017-01-08T01:26:19.540Z,0.41
2017-01-08T01:27:00.107Z,0.4
2017-01-08T01:27:40.771Z,0.4
2017-01-08T01:28:21.400Z,0.37
2017-01-08T01:29:01.990Z,0.4
2017-01-08T01:29:42.627Z,0.36
2017-01-08T01:30:23.262Z,0.39
2017-01-08T01:31:04.835Z,0.4
2017-01-08T01:31:45.483Z,0.34
2017-01-08T01:33:43.622Z,0.37
2017-01-08T01:34:24.224Z,0.44
2017-01-08T01:35:04.870Z,0.39
2017-01-08T01:35:45.467Z,0.43
2017-01-08T01:36:27.083Z,0.39
2017-01-08T01:37:07.653Z,0.39
2017-01-08T01:37:48.308Z,0.49
2017-01-08T01:38:28.895Z,0.43
2017-01-08T01:39:09.495Z,0.5
2017-01-08T01:39:50.063Z,0.44
2017-01-08T01:40:30.761Z,0.49
2017-01-08T01:41:11.386Z,0.47
2017-01-08T01:41:52.032Z,0.49
2017-01-08T01:42:32.675Z,0.49
2017-01-08T01:43:13.330Z,0.49
2017-01-08T01:43:53.964Z,0.47
2017-01-08T01:44:34.636Z,0.49
2017-01-08T01:45:15.272Z,0.4
2017-01-08T01:45:55.872Z,0.47
2017-01-08T01:46:36.465Z,0.49
2017-01-08T01:47:17.023Z,0.58
2017-01-08T01:47:57.715Z,0.46
2017-01-08T01:48:38.385Z,0.58
2017-01-08T01:49:18.984Z,0.5
2017-01-08T01:49:59.629Z,0.43
2017-01-08T01:50:40.199Z,0.52
2017-01-08T01:51:21.777Z,0.5
2017-01-08T01:52:02.432Z,0.47
2017-01-08T01:52:43.085Z,0.52
2017-01-08T01:53:23.737Z,0.58
2017-01-08T01:54:04.370Z,0.5
2017-01-08T01:54:45.051Z,0.56
2017-01-08T01:55:25.626Z,0.47
2017-01-08T01:56:07.250Z,0.47
2017-01-08T01:56:47.823Z,0.52
2017-01-08T01:57:28.473Z,0.56
2017-01-08T01:58:09.055Z,0.47
2017-01-08T01:58:50.681Z,0.52
2017-01-08T01:59:31.240Z,0.56
2017-01-08T02:00:11.904Z,0.47
2017-01-08T02:00:53.462Z,0.58
2017-01-08T02:01:34.573Z,0.5
2017-01-08T02:02:15.235Z,0.6
2017-01-08T02:02:55.879Z,0.56
2017-01-08T02:03:36.532Z,0.5
2017-01-08T02:04:17.187Z,0.58
2017-01-08T02:04:57.845Z,0.5
2017-01-08T02:05:38.594Z,0.47
2017-01-08T02:06:19.246Z,0.49
2017-01-08T02:06:59.940Z,0.46
2017-01-08T02:07:40.736Z,0.56
2017-01-08T02:08:21.310Z,0.46
2017-01-08T02:09:01.959Z,0.52
2017-01-08T02:09:42.623Z,0.52
2017-01-08T02:10:23.267Z,0.47
2017-01-08T02:11:03.925Z,0.49
2017-01-08T02:11:45.462Z,0.5
2017-01-08T02:12:26.063Z,0.5
2017-01-08T02:13:06.707Z,0.56
2017-01-08T02:13:47.381Z,0.5
2017-01-08T02:14:28.006Z,0.62
2017-01-08T02:15:08.697Z,0.6
2017-01-08T02:15:50.177Z,0.56
2017-01-08T02:16:30.741Z,0.56
2017-01-08T02:17:11.444Z,0.59
2017-01-08T02:17:52.096Z,0.59
2017-01-08T02:18:32.705Z,0.58
2017-01-08T02:19:13.245Z,0.63
2017-01-08T02:19:53.942Z,0.56
2017-01-08T02:20:35.820Z,0.5
2017-01-08T02:21:16.446Z,0.62
2017-01-08T02:21:58.124Z,0.63
2017-01-08T02:22:38.772Z,0.59
2017-01-08T02:23:19.438Z,0.63
2017-01-08T02:24:00.080Z,0.59
2017-01-08T02:24:40.838Z,0.65
2017-01-08T02:25:21.488Z,0.63
2017-01-08T02:26:02.075Z,0.59
2017-01-08T02:26:43.706Z,0.65
2017-01-08T02:27:24.366Z,0.63
2017-01-08T02:28:05.029Z,0.62
2017-01-08T02:28:45.617Z,0.65
2017-01-08T02:29:26.212Z,0.6
2017-01-08T02:30:06.791Z,0.65
2017-01-08T02:30:47.448Z,0.62
2017-01-08T02:31:28.120Z,0.59
2017-01-08T02:32:08.730Z,0.62
2017-01-08T02:32:49.361Z,0.62
2017-01-08T02:33:29.944Z,0.56
2017-01-08T02:34:10.527Z,0.65
2017-01-08T02:34:52.155Z,0.62
2017-01-08T02:35:32.838Z,0.66
2017-01-08T02:36:13.493Z,0.62
2017-01-08T02:36:54.113Z,0.56
2017-01-08T02:37:34.656Z,0.66
2017-01-08T02:38:15.363Z,0.63
2017-01-08T02:38:56.990Z,0.68
2017-01-08T02:39:37.535Z,0.62
2017-01-08T02:40:18.205Z,0.59
2017-01-08T02:40:58.855Z,0.56
2017-01-08T02:41:39.399Z,0.7
2017-01-08T02:42:20.059Z,0.7
2017-01-08T02:43:00.741Z,0.73
2017-01-08T02:43:41.357Z,0.7
2017-01-08T02:44:22.030Z,0.76
2017-01-08T02:45:03.283Z,0.77
2017-01-08T02:45:43.940Z,0.69
2017-01-08T02:46:24.617Z,0.68
2017-01-08T02:47:05.240Z,0.7
2017-01-08T02:47:45.899Z,0.78
2017-01-08T02:48:26.572Z,0.81
2017-01-08T02:49:07.221Z,0.76
2017-01-08T02:49:47.858Z,0.76
2017-01-08T02:50:28.511Z,0.77
2017-01-08T02:51:09.157Z,0.7
2017-01-08T02:51:49.813Z,0.81
2017-01-08T02:52:30.466Z,0.83
2017-01-08T02:53:11.963Z,0.86
2017-01-08T02:53:52.616Z,0.73
2017-01-08T02:54:33.271Z,0.77
2017-01-08T02:55:13.894Z,0.62
2017-01-08T02:55:54.556Z,0.78
2017-01-08T02:56:35.194Z,0.66
2017-01-08T02:57:15.887Z,0.7
2017-01-08T02:57:56.530Z,0.7
2017-01-08T02:58:37.159Z,0.7
2017-01-08T02:59:17.827Z,0.66
2017-01-08T02:59:58.469Z,0.78
2017-01-08T03:00:39.121Z,0.83
2017-01-08T03:01:19.769Z,0.78
2017-01-08T03:02:00.423Z,0.74
2017-01-08T03:02:41.083Z,0.73
2017-01-08T03:03:22.239Z,0.7
2017-01-08T03:04:03.566Z,0.68
2017-01-08T03:04:44.159Z,0.7
2017-01-08T03:05:25.837Z,0.73
2017-01-08T03:06:06.398Z,0.69
2017-01-08T03:06:47.067Z,0.78
2017-01-08T03:07:28.678Z,0.76
2017-01-08T03:08:09.296Z,0.73
2017-01-08T03:08:49.862Z,0.77
2017-01-08T03:09:30.497Z,0.73
2017-01-08T03:10:11.185Z,0.76
2017-01-08T03:10:51.737Z,0.74
2017-01-08T03:11:32.331Z,0.69
2017-01-08T03:12:13.691Z,0.7
2017-01-08T03:12:54.273Z,0.74
2017-01-08T03:13:34.926Z,0.78
2017-01-08T03:14:15.548Z,0.74
2017-01-08T03:14:56.123Z,0.74
2017-01-08T03:15:37.784Z,0.76
2017-01-08T03:16:18.441Z,0.77
2017-01-08T03:16:59.103Z,0.84
2017-01-08T03:17:39.764Z,0.78
2017-01-08T03:18:20.379Z,0.74
2017-01-08T03:19:01.036Z,0.81
2017-01-08T03:19:41.689Z,0.8
2017-01-08T03:20:22.362Z,0.77
2017-01-08T03:21:04.051Z,0.76
2017-01-08T03:21:44.677Z,0.8
2017-01-08T03:22:25.328Z,0.8
2017-01-08T03:23:06.009Z,0.86
2017-01-08T03:23:46.683Z,0.81
2017-01-08T03:24:27.310Z,0.81
2017-01-08T03:25:08.481Z,0.8
2017-01-08T03:25:49.105Z,0.74
2017-01-08T03:26:29.757Z,0.81
2017-01-08T03:27:10.436Z,0.81
2017-01-08T03:27:51.061Z,0.77
2017-01-08T03:28:31.718Z,0.83
2017-01-08T03:29:12.365Z,0.81
2017-01-08T03:29:53.027Z,0.78
2017-01-08T03:30:33.670Z,0.76
2017-01-08T03:31:14.248Z,0.84
2017-01-08T03:31:54.874Z,0.78
2017-01-08T03:32:35.525Z,0.74
2017-01-08T03:33:16.199Z,0.78
2017-01-08T03:33:56.826Z,0.65
2017-01-08T03:34:37.430Z,0.73
2017-01-08T03:35:18.110Z,0.78
2017-01-08T03:35:58.705Z,0.8
2017-01-08T03:36:39.438Z,0.76
2017-01-08T03:37:20.008Z,0.8
2017-01-08T03:38:01.693Z,0.73
2017-01-08T03:38:42.340Z,0.8
2017-01-08T03:39:23.009Z,0.8
2017-01-08T03:40:03.628Z,0.77
2017-01-08T03:40:44.252Z,0.81
2017-01-08T03:41:25.855Z,0.77
2017-01-08T03:42:06.416Z,0.8
2017-01-08T03:42:47.085Z,0.77
2017-01-08T03:43:27.670Z,0.78
2017-01-08T03:44:08.262Z,0.83
2017-01-08T03:44:48.905Z,0.78
2017-01-08T03:45:29.602Z,0.83
2017-01-08T03:46:10.244Z,0.84
2017-01-08T03:46:50.903Z,0.78
2017-01-08T03:47:31.647Z,0.78
2017-01-08T03:48:12.198Z,0.76
2017-01-08T03:48:52.883Z,0.84
2017-01-08T03:49:33.520Z,0.77
2017-01-08T03:50:14.161Z,0.8
2017-01-08T03:50:54.741Z,0.8
2017-01-08T03:51:35.443Z,0.8
2017-01-08T03:52:15.992Z,0.81
2017-01-08T03:52:56.670Z,0.8
2017-01-08T03:53:37.247Z,0.81
2017-01-08T03:54:17.847Z,0.8
2017-01-08T03:54:58.409Z,0.76
2017-01-08T03:55:39.053Z,0.81
2017-01-08T03:56:19.708Z,0.81
2017-01-08T03:57:00.278Z,0.81
2017-01-08T03:57:40.932Z,0.81
2017-01-08T03:58:21.565Z,0.78
2017-01-08T03:59:02.133Z,0.78
2017-01-08T03:59:42.800Z,0.81
2017-01-08T04:00:23.419Z,0.8
2017-01-08T04:01:03.983Z,0.78
2017-01-08T04:01:44.638Z,0.8
2017-01-08T04:02:25.296Z,0.78
2017-01-08T04:03:05.949Z,0.83
2017-01-08T04:03:46.553Z,0.77
2017-01-08T04:04:28.221Z,0.78
2017-01-08T04:05:08.880Z,0.84
2017-01-08T04:05:49.523Z,0.83
2017-01-08T04:06:30.097Z,0.81
2017-01-08T04:07:10.755Z,0.73
2017-01-08T04:07:51.376Z,0.76
2017-01-08T04:08:31.953Z,0.74
2017-01-08T04:09:13.449Z,0.76
2017-01-08T04:09:54.055Z,0.78
2017-01-08T04:10:34.648Z,0.78
2017-01-08T04:11:15.277Z,0.77
2017-01-08T04:11:55.910Z,0.73
2017-01-08T04:12:36.587Z,0.81
2017-01-08T04:13:17.252Z,0.77
2017-01-08T04:13:57.865Z,0.83
2017-01-08T04:14:38.449Z,0.78
2017-01-08T04:15:19.075Z,0.8
2017-01-08T04:15:59.723Z,0.77
2017-01-08T04:16:40.375Z,0.81
2017-01-08T04:17:21.029Z,0.73
2017-01-08T04:18:01.683Z,0.8
2017-01-08T04:18:42.338Z,0.78
2017-01-08T04:19:22.984Z,0.77
2017-01-08T04:20:03.641Z,0.8
2017-01-08T04:20:44.196Z,0.78
2017-01-08T04:21:24.746Z,0.81
2017-01-08T04:22:05.460Z,0.8
2017-01-08T04:22:46.040Z,0.78
2017-01-08T04:23:26.709Z,0.8
2017-01-08T04:24:07.347Z,0.73
2017-01-08T04:24:47.913Z,0.76
2017-01-08T04:25:28.618Z,0.8
2017-01-08T04:26:09.313Z,0.81
2017-01-08T04:26:49.894Z,0.78
2017-01-08T04:27:30.525Z,0.77
2017-01-08T04:28:11.126Z,0.8
2017-01-08T04:28:51.824Z,0.74
2017-01-08T04:29:32.381Z,0.77
2017-01-08T04:30:13.954Z,0.81
2017-01-08T04:30:54.552Z,0.77
2017-01-08T04:31:35.210Z,0.77
2017-01-08T04:32:15.852Z,0.81
2017-01-08T04:32:56.585Z,0.73
2017-01-08T04:33:37.173Z,0.81
2017-01-08T04:34:17.823Z,0.69
2017-01-08T04:34:58.479Z,0.74
2017-01-08T04:35:39.138Z,0.74
2017-01-08T04:36:20.417Z,0.81
2017-01-08T04:37:00.998Z,0.77
2017-01-08T04:37:41.641Z,0.77
2017-01-08T04:38:22.225Z,0.84
2017-01-08T04:39:02.862Z,0.77
2017-01-08T04:39:43.496Z,0.76
2017-01-08T04:40:24.050Z,0.81
2017-01-08T04:41:04.711Z,0.83
2017-01-08T04:41:45.362Z,0.78
2017-01-08T04:42:26.035Z,0.73
2017-01-08T04:43:06.684Z,0.86
2017-01-08T04:43:47.351Z,0.84
2017-01-08T04:44:28.493Z,0.83
2017-01-08T04:45:09.160Z,0.83
2017-01-08T04:45:49.803Z,0.86
2017-01-08T04:46:31.489Z,0.78
2017-01-08T04:47:12.277Z,0.84
2017-01-08T04:47:52.868Z,0.86
2017-01-08T04:48:33.520Z,0.86
2017-01-08T04:49:14.184Z,0.87
2017-01-08T04:49:54.833Z,0.84
2017-01-08T04:50:35.492Z,0.84
2017-01-08T04:51:16.085Z,0.84
2017-01-08T04:51:56.684Z,0.91
2017-01-08T04:52:37.231Z,0.84
2017-01-08T04:53:17.906Z,0.81
2017-01-08T04:53:58.596Z,0.87
2017-01-08T04:54:39.301Z,0.84
2017-01-08T04:55:19.847Z,0.84
2017-01-08T04:56:00.517Z,0.81
2017-01-08T04:56:41.167Z,0.88
2017-01-08T04:57:21.803Z,0.94
2017-01-08T04:58:02.476Z,0.86
2017-01-08T04:58:43.118Z,0.86
2017-01-08T04:59:23.780Z,0.88
2017-01-08T05:00:04.431Z,1.01
2017-01-08T05:00:45.087Z,0.96
2017-01-08T05:01:25.674Z,0.88
2017-01-08T05:02:06.279Z,0.99
2017-01-08T05:02:46.840Z,0.84
2017-01-08T05:03:27.506Z,0.91
2017-01-08T05:04:08.085Z,0.98
2017-01-08T05:04:49.599Z,0.87
2017-01-08T05:05:30.161Z,0.86
2017-01-08T05:06:10.804Z,0.92
2017-01-08T05:06:52.173Z,0.88
2017-01-08T05:07:32.784Z,0.96
2017-01-08T05:08:13.404Z,1.01
2017-01-08T05:08:54.133Z,0.87
2017-01-08T05:09:34.790Z,1.02
2017-01-08T05:10:15.458Z,0.95
2017-01-08T05:10:56.097Z,0.98
2017-01-08T05:11:36.645Z,0.96
2017-01-08T05:12:17.309Z,0.99
2017-01-08T05:12:57.954Z,0.88
2017-01-08T05:13:38.605Z,0.95
2017-01-08T05:14:19.306Z,0.87
2017-01-08T05:14:59.911Z,0.99
2017-01-08T05:15:40.563Z,0.92
2017-01-08T05:16:21.227Z,0.92
2017-01-08T05:17:01.880Z,0.86
2017-01-08T05:17:42.544Z,0.92
2017-01-08T05:18:23.187Z,0.92
2017-01-08T05:19:03.839Z,0.92
2017-01-08T05:19:44.416Z,0.87
2017-01-08T05:20:25.043Z,1.01
2017-01-08T05:21:05.707Z,0.95
2017-01-08T05:21:46.337Z,0.94
2017-01-08T05:22:28.004Z,0.96
2017-01-08T05:23:08.592Z,0.98
2017-01-08T05:23:49.247Z,0.92
2017-01-08T05:24:29.921Z,0.95
2017-01-08T05:25:10.556Z,1.01
2017-01-08T05:25:51.194Z,0.94
2017-01-08T05:26:31.841Z,0.94
2017-01-08T05:27:13.417Z,0.98
2017-01-08T05:27:55.016Z,0.99
2017-01-08T05:28:35.648Z,0.95
2017-01-08T05:29:16.300Z,0.91
2017-01-08T05:29:56.939Z,0.98
2017-01-08T05:30:37.608Z,0.98
2017-01-08T05:31:18.210Z,0.92
2017-01-08T05:31:58.795Z,0.96
2017-01-08T05:32:39.351Z,0.96
2017-01-08T05:33:20.950Z,0.96
2017-01-08T05:34:01.623Z,0.91
2017-01-08T05:34:44.344Z,0.98
2017-01-08T05:35:24.831Z,0.94
2017-01-08T05:36:05.501Z,0.86
2017-01-08T05:36:46.135Z,0.98
2017-01-08T05:37:26.807Z,0.95
2017-01-08T05:38:07.452Z,0.98
2017-01-08T05:38:48.087Z,0.88
2017-01-08T05:39:28.755Z,0.99
2017-01-08T05:40:10.431Z,0.92
2017-01-08T05:40:51.073Z,0.98
2017-01-08T05:41:31.794Z,0.87
2017-01-08T05:42:12.382Z,0.87
2017-01-08T05:42:53.965Z,0.95
2017-01-08T05:43:34.702Z,0.95
2017-01-08T05:44:15.358Z,0.95
2017-01-08T05:44:56.026Z,0.95
2017-01-08T05:45:38.531Z,0.94
2017-01-08T05:46:19.107Z,0.92
2017-01-08T05:46:59.717Z,0.99
2017-01-08T05:47:40.276Z,0.88
2017-01-08T05:48:20.929Z,0.86
2017-01-08T05:49:01.509Z,0.8
2017-01-08T05:49:42.115Z,0.81
2017-01-08T05:50:22.674Z,0.86
2017-01-08T05:51:03.340Z,0.84
2017-01-08T05:51:43.985Z,0.84
2017-01-08T05:52:24.632Z,0.87
2017-01-08T05:53:06.209Z,0.84
2017-01-08T05:53:47.784Z,0.88
2017-01-08T05:54:28.495Z,0.86
2017-01-08T05:55:09.092Z,0.92
2017-01-08T05:55:49.760Z,0.83
2017-01-08T05:56:30.489Z,0.92
2017-01-08T05:57:11.051Z,0.86
2017-01-08T05:57:52.619Z,0.86
2017-01-08T05:58:33.273Z,0.92
2017-01-08T05:59:13.821Z,0.87
2017-01-08T05:59:54.477Z,0.87
2017-01-08T06:00:35.221Z,1.01
2017-01-08T06:01:15.791Z,0.99
2017-01-08T06:01:56.458Z,0.98
2017-01-08T06:02:37.031Z,0.96
2017-01-08T06:03:17.742Z,0.96
2017-01-08T06:03:58.319Z,0.96
2017-01-08T06:04:38.954Z,0.98
2017-01-08T06:05:19.554Z,0.98
2017-01-08T06:06:00.147Z,0.98
2017-01-08T06:06:40.731Z,0.91
2017-01-08T06:07:21.372Z,1.05
2017-01-08T06:08:01.950Z,1.04
2017-01-08T06:08:42.655Z,1.05
2017-01-08T06:09:23.207Z,1.05
2017-01-08T06:10:03.880Z,1.02
2017-01-08T06:10:44.463Z,1.08
2017-01-08T06:11:25.067Z,1.06
2017-01-08T06:12:05.621Z,1.08
2017-01-08T06:12:46.282Z,1.1
2017-01-08T06:13:26.888Z,1.04
2017-01-08T06:14:07.468Z,1.08
2017-01-08T06:14:48.013Z,1.06
2017-01-08T06:15:29.596Z,1.13
2017-01-08T06:16:11.167Z,1.12
2017-01-08T06:16:51.741Z,1.2
2017-01-08T06:17:32.413Z,1.14
2017-01-08T06:18:13.040Z,1.12
2017-01-08T06:18:54.165Z,1.12
2017-01-08T06:19:35.792Z,1.17
2017-01-08T06:20:16.523Z,1.2
2017-01-08T06:20:57.064Z,1.2
2017-01-08T06:21:37.745Z,1.2
2017-01-08T06:22:18.478Z,1.26
2017-01-08T06:22:59.172Z,1.22
2017-01-08T06:23:39.807Z,1.2
2017-01-08T06:24:20.437Z,1.12
2017-01-08T06:25:01.106Z,1.19
2017-01-08T06:25:41.755Z,1.23
2017-01-08T06:26:22.353Z,1.19
2017-01-08T06:27:02.957Z,1.2
2017-01-08T06:27:43.527Z,1.2
2017-01-08T06:28:24.166Z,1.2
2017-01-08T06:29:04.752Z,1.2
2017-01-08T06:29:45.353Z,1.23
2017-01-08T06:30:25.915Z,1.26
2017-01-08T06:31:06.577Z,1.22
2017-01-08T06:31:47.171Z,1.22
2017-01-08T06:32:27.862Z,1.31
2017-01-08T06:33:08.404Z,1.24
2017-01-08T06:33:48.982Z,1.23
2017-01-08T06:34:29.579Z,1.32
2017-01-08T06:35:10.169Z,1.34
2017-01-08T06:35:50.727Z,1.26
2017-01-08T06:36:31.393Z,1.32
2017-01-08T06:37:11.983Z,1.32
2017-01-08T06:37:52.573Z,1.23
2017-01-08T06:38:33.119Z,1.26
2017-01-08T06:39:14.912Z,1.26
2017-01-08T06:39:55.412Z,1.31
2017-01-08T06:40:36.009Z,1.24
2017-01-08T06:41:16.569Z,1.3
2017-01-08T06:41:57.233Z,1.28
2017-01-08T06:42:37.862Z,1.3
2017-01-08T06:43:18.439Z,1.31
2017-01-08T06:43:59.081Z,1.26
2017-01-08T06:44:39.721Z,1.24
2017-01-08T06:45:20.449Z,1.31
2017-01-08T06:46:01.024Z,1.31
2017-01-08T06:46:41.699Z,1.23
2017-01-08T06:47:23.373Z,1.3
2017-01-08T06:48:04.019Z,1.23
2017-01-08T06:48:44.911Z,1.3
2017-01-08T06:49:25.543Z,1.31
2017-01-08T06:50:06.193Z,1.28
2017-01-08T06:50:46.869Z,1.34
2017-01-08T06:51:27.536Z,1.37
2017-01-08T06:52:08.956Z,1.35
2017-01-08T06:52:49.531Z,1.35
2017-01-08T06:53:31.198Z,1.35
2017-01-08T06:54:11.838Z,1.3
2017-01-08T06:54:52.433Z,1.24
2017-01-08T06:55:33.071Z,1.35
2017-01-08T06:56:13.642Z,1.24
2017-01-08T06:56:54.247Z,1.4
2017-01-08T06:57:34.819Z,1.41
2017-01-08T06:58:15.462Z,1.28
2017-01-08T06:58:56.050Z,1.32
2017-01-08T06:59:36.753Z,1.35
2017-01-08T07:00:17.329Z,1.3
2017-01-08T07:00:57.953Z,1.32
2017-01-08T07:01:39.474Z,1.35
2017-01-08T07:02:20.101Z,1.28
2017-01-08T07:03:00.760Z,1.35
2017-01-08T07:03:41.410Z,1.24
2017-01-08T07:04:22.060Z,1.32
2017-01-08T07:05:02.709Z,1.26
2017-01-08T07:05:43.361Z,1.32
2017-01-08T07:06:24.035Z,1.32
2017-01-08T07:07:04.675Z,1.24
2017-01-08T07:07:45.321Z,1.24
2017-01-08T07:08:25.980Z,1.26
2017-01-08T07:09:06.612Z,1.24
2017-01-08T07:09:47.970Z,1.17
2017-01-08T07:10:28.529Z,1.19
2017-01-08T07:11:09.220Z,1.23
2017-01-08T07:11:49.836Z,1.22
2017-01-08T07:12:30.394Z,1.2
2017-01-08T07:13:11.104Z,1.24
2017-01-08T07:13:52.720Z,1.06
2017-01-08T07:14:33.286Z,1.04
2017-01-08T07:15:14.466Z,1.17
2017-01-08T07:15:55.139Z,1.13
2017-01-08T07:16:35.846Z,1.1
2017-01-08T07:17:16.428Z,1.16
2017-01-08T07:17:57.078Z,1.14
2017-01-08T07:18:37.753Z,1.17
2017-01-08T07:19:18.310Z,1.19
2017-01-08T07:19:58.929Z,1.06
2017-01-08T07:20:41.553Z,1.2
2017-01-08T07:21:22.152Z,1.23
2017-01-08T07:22:02.733Z,1.19
2017-01-08T07:22:43.381Z,1.2
2017-01-08T07:23:23.962Z,1.17
2017-01-08T07:24:04.555Z,1.23
2017-01-08T07:24:45.140Z,1.2
2017-01-08T07:25:25.776Z,1.19
2017-01-08T07:26:07.394Z,1.24
2017-01-08T07:26:48.022Z,1.24
2017-01-08T07:27:28.645Z,1.24
2017-01-08T07:28:09.305Z,1.26
2017-01-08T07:28:49.957Z,1.24
2017-01-08T07:29:30.607Z,1.26
2017-01-08T07:30:11.259Z,1.26
2017-01-08T07:30:51.915Z,1.28
2017-01-08T07:31:32.464Z,1.26
2017-01-08T07:32:13.060Z,1.23
2017-01-08T07:32:53.663Z,1.28
2017-01-08T07:33:34.250Z,1.3
2017-01-08T07:34:14.870Z,1.23
2017-01-08T07:34:55.470Z,1.24
2017-01-08T07:35:36.064Z,1.28
2017-01-08T07:36:16.622Z,1.28
2017-01-08T07:36:57.272Z,1.24
2017-01-08T07:37:37.878Z,1.31
2017-01-08T07:38:18.579Z,1.24
2017-01-08T07:38:59.142Z,1.23
2017-01-08T07:39:39.782Z,1.24
2017-01-08T07:40:20.381Z,1.34
2017-01-08T07:41:00.975Z,1.28
2017-01-08T07:41:41.542Z,1.35
2017-01-08T07:42:22.190Z,1.26
2017-01-08T07:43:02.786Z,1.34
2017-01-08T07:43:45.434Z,1.34
2017-01-08T07:44:25.983Z,1.28
2017-01-08T07:45:07.603Z,1.34
2017-01-08T07:45:48.164Z,1.41
2017-01-08T07:46:28.870Z,1.32
2017-01-08T07:47:09.522Z,1.26
2017-01-08T07:47:50.176Z,1.32
2017-01-08T07:48:30.828Z,1.28
2017-01-08T07:49:11.482Z,1.26
2017-01-08T07:49:53.159Z,1.23
2017-01-08T07:50:33.813Z,1.38
2017-01-08T07:51:14.364Z,1.3
2017-01-08T07:51:55.679Z,1.31
2017-01-08T07:52:36.332Z,1.35
2017-01-08T07:53:17.751Z,1.32
2017-01-08T07:53:58.303Z,1.31
2017-01-08T07:54:38.966Z,1.3
2017-01-08T07:55:19.555Z,1.3
2017-01-08T07:56:00.158Z,1.32
2017-01-08T07:56:40.731Z,1.34
2017-01-08T07:57:21.396Z,1.28
2017-01-08T07:58:02.077Z,1.32
2017-01-08T07:58:43.089Z,1.31
2017-01-08T07:59:23.529Z,1.28
2017-01-08T08:00:04.190Z,1.3
2017-01-08T08:00:44.791Z,1.37
2017-01-08T08:01:25.377Z,1.28
2017-01-08T08:02:06.072Z,1.38
2017-01-08T08:02:46.634Z,1.38
2017-01-08T08:03:27.257Z,1.31
2017-01-08T08:04:08.873Z,1.38
2017-01-08T08:04:49.466Z,1.32
2017-01-08T08:05:30.053Z,1.38
2017-01-08T08:06:11.721Z,1.31
2017-01-08T08:06:52.370Z,1.34
2017-01-08T08:07:33.010Z,1.37
2017-01-08T08:08:13.669Z,1.34
2017-01-08T08:08:54.303Z,1.3
2017-01-08T08:09:34.979Z,1.31
2017-01-08T08:10:15.620Z,1.32
2017-01-08T08:10:56.209Z,1.41
2017-01-08T08:11:37.479Z,1.42
2017-01-08T08:12:18.129Z,1.48
2017-01-08T08:12:58.789Z,1.42
2017-01-08T08:13:39.446Z,1.48
2017-01-08T08:14:20.092Z,1.49
2017-01-08T08:15:00.756Z,1.52
2017-01-08T08:15:41.400Z,1.52
2017-01-08T08:16:21.996Z,1.52
2017-01-08T08:17:02.562Z,1.44
2017-01-08T08:17:43.228Z,1.48
2017-01-08T08:18:23.873Z,1.5
2017-01-08T08:19:05.434Z,1.45
2017-01-08T08:19:46.079Z,1.49
2017-01-08T08:20:26.733Z,1.49
2017-01-08T08:21:07.413Z,1.5
2017-01-08T08:21:48.051Z,1.52
2017-01-08T08:22:28.663Z,1.5
2017-01-08T08:23:10.365Z,1.53
2017-01-08T08:23:51.018Z,1.56
2017-01-08T08:24:31.646Z,1.5
2017-01-08T08:25:12.308Z,1.56
2017-01-08T08:25:52.959Z,1.52
2017-01-08T08:26:33.514Z,1.56
2017-01-08T08:27:14.192Z,1.6
2017-01-08T08:27:54.856Z,1.55
2017-01-08T08:28:35.564Z,1.62
2017-01-08T08:29:16.127Z,1.52
2017-01-08T08:29:56.766Z,1.59
2017-01-08T08:30:37.377Z,1.59
2017-01-08T08:31:18.982Z,1.53
2017-01-08T08:31:59.551Z,1.6
2017-01-08T08:32:40.208Z,1.59
2017-01-08T08:33:20.796Z,1.62
2017-01-08T08:34:01.401Z,1.62
2017-01-08T08:34:41.959Z,1.67
2017-01-08T08:35:22.630Z,1.7
2017-01-08T08:36:03.697Z,1.67
2017-01-08T08:36:44.315Z,1.7
2017-01-08T08:37:24.881Z,1.67
2017-01-08T08:38:05.538Z,1.74
2017-01-08T08:38:46.220Z,1.66
2017-01-08T08:39:26.833Z,1.74
2017-01-08T08:40:07.392Z,1.71
2017-01-08T08:40:48.041Z,1.73
2017-01-08T08:41:28.626Z,1.77
2017-01-08T08:42:09.281Z,1.67
2017-01-08T08:42:49.944Z,1.68
2017-01-08T08:43:30.588Z,1.68
2017-01-08T08:44:11.147Z,1.7
2017-01-08T08:44:51.756Z,1.7
2017-01-08T08:45:32.419Z,1.7
2017-01-08T08:46:13.099Z,1.77
2017-01-08T08:46:53.715Z,1.8
2017-01-08T08:47:34.425Z,1.71
2017-01-08T08:48:14.902Z,1.71
2017-01-08T08:52:06.181Z,1.92
2017-01-08T08:52:46.806Z,1.84
2017-01-08T08:53:29.500Z,1.85
2017-01-08T08:54:10.139Z,1.89
2017-01-08T08:54:50.707Z,1.97
2017-01-08T08:55:32.392Z,1.92
2017-01-08T08:56:13.007Z,1.95
2017-01-08T08:56:53.606Z,2
2017-01-08T08:57:34.157Z,1.97
2017-01-08T08:58:14.726Z,2.06
2017-01-08T08:58:55.323Z,2.08
2017-01-08T08:59:35.922Z,2.02
2017-01-08T09:00:16.517Z,2.04
2017-01-08T09:00:57.095Z,2.06
2017-01-08T09:01:37.734Z,2.04
2017-01-08T09:02:18.319Z,2.04
2017-01-08T09:03:01.128Z,2
2017-01-08T09:03:41.640Z,2.11
2017-01-08T09:04:22.304Z,2.24
2017-01-08T09:05:02.883Z,2.22
2017-01-08T09:05:43.485Z,2.18
2017-01-08T09:06:24.267Z,2.08
2017-01-08T09:07:04.913Z,2.15
2017-01-08T09:07:45.542Z,2.17
2017-01-08T09:08:26.220Z,2.11